Time;durP1;ratioP1;P1;durP2;ratioP2;P2;SDS_P1;SDS_P2;PMS_P1;PMS_P2;Temp;Humidity;BMP_temperature;BMP_pressure;BME280_temperature;BME280_humidity;BME280_pressure;Samples;Min_cycle;Max_cycle;Signal;HPM_P1;HPM_P2
2022/10/08 00:00:47;;;;;;;3.05;2.03;;;;;;;13.24;45.45;94566.88;5088005;28;20024;-77
2022/10/08 00:03:14;;;;;;;5.70;2.20;;;;;;;13.43;45.79;94594.09;5086459;28;20102;-76
2022/10/08 00:05:40;;;;;;;3.22;2.28;;;;;;;13.44;46.10;94584.97;5087794;27;20088;-76
2022/10/08 00:08:06;;;;;;;2.88;2.10;;;;;;;13.44;45.77;94590.31;5087664;28;20031;-77
2022/10/08 00:10:32;;;;;;;7.88;3.05;;;;;;;13.18;46.05;94549.41;5078785;28;20039;-76
2022/10/08 00:12:59;;;;;;;5.03;2.85;;;;;;;13.42;46.08;94586.38;5082430;28;20418;-77
2022/10/08 00:15:25;;;;;;;4.13;2.75;;;;;;;13.19;46.06;94553.66;5086818;28;20035;-76
2022/10/08 00:17:50;;;;;;;4.15;3.05;;;;;;;13.28;45.96;94565.13;5087345;28;20301;-76
2022/10/08 00:20:16;;;;;;;10.27;2.50;;;;;;;13.25;46.35;94561.19;5086234;28;20027;-77
2022/10/08 00:22:41;;;;;;;6.68;2.28;;;;;;;13.22;46.43;94563.72;5087597;28;20019;-77
2022/10/08 00:25:09;;;;;;;6.72;2.38;;;;;;;13.26;46.37;94575.34;5086480;28;20023;-76
2022/10/08 00:27:34;;;;;;;6.22;2.25;;;;;;;13.03;46.41;94544.50;5091032;28;20036;-76
2022/10/08 00:30:00;;;;;;;4.03;2.72;;;;;;;13.11;46.54;94549.06;5088061;28;20077;-77
2022/10/08 00:32:25;;;;;;;4.88;2.70;;;;;;;13.11;46.53;94549.06;5084404;28;20026;-78
2022/10/08 00:34:51;;;;;;;6.00;2.95;;;;;;;13.24;46.60;94564.19;5088579;28;20499;-77
2022/10/08 00:37:16;;;;;;;3.85;2.42;;;;;;;13.20;46.43;94558.66;5085486;28;20020;-75
2022/10/08 00:39:43;;;;;;;5.45;2.40;;;;;;;13.09;46.62;94537.91;5086437;28;20027;-76
2022/10/08 00:42:11;;;;;;;2.90;2.08;;;;;;;13.04;46.67;94527.38;5085132;28;20119;-77
2022/10/08 00:44:42;;;;;;;4.45;2.67;;;;;;;13.25;46.76;94563.88;5086275;28;20024;-77
2022/10/08 00:47:18;;;;;;;5.43;2.85;;;;;;;13.24;46.75;94558.84;5092250;27;20214;-77
2022/10/08 00:49:48;;;;;;;5.03;2.58;;;;;;;13.22;46.68;94553.03;5091083;27;20435;-77
2022/10/08 00:52:15;;;;;;;5.55;3.30;;;;;;;13.17;46.71;94553.97;5088703;27;20154;-76
2022/10/08 00:54:41;;;;;;;3.05;2.50;;;;;;;13.11;46.85;94543.72;5093414;27;20042;-76
2022/10/08 00:57:07;;;;;;;6.15;3.17;;;;;;;13.09;47.14;94536.03;5091899;27;20027;-77
2022/10/08 00:59:34;;;;;;;5.35;2.90;;;;;;;12.94;47.09;94522.31;5090996;27;20412;-76
2022/10/08 01:01:59;;;;;;;4.57;3.08;;;;;;;12.92;47.29;94521.84;5088649;27;20020;-76
2022/10/08 01:04:25;;;;;;;3.25;2.20;;;;;;;12.83;47.26;94517.28;5090272;27;20041;-76
2022/10/08 01:07:03;;;;;;;2.78;2.20;;;;;;;12.81;47.17;94508.78;5089812;27;20023;-77
2022/10/08 01:09:37;;;;;;;3.97;2.63;;;;;;;12.95;47.40;94526.56;5091508;27;20140;-76
2022/10/08 01:12:22;;;;;;;4.80;2.35;;;;;;;13.00;47.14;94543.25;5087800;27;20440;-77
2022/10/08 01:14:48;;;;;;;;;;;;;;;12.98;47.40;94534.75;5087777;27;20505;-76
2022/10/08 01:17:19;;;;;;;3.72;2.20;;;;;;;12.92;47.44;94535.19;5093319;27;19912;-76
2022/10/08 01:19:50;;;;;;;2.83;2.03;;;;;;;12.86;47.52;94521.97;5088952;28;20074;-76
2022/10/08 01:22:53;;;;;;;3.75;2.35;;;;;;;12.92;47.47;94519.16;5091688;27;20032;-77
2022/10/08 01:25:36;;;;;;;3.38;2.25;;;;;;;12.92;47.25;94517.28;5096688;27;20483;-76
2022/10/08 01:28:13;;;;;;;2.85;1.77;;;;;;;12.92;47.22;94516.50;5089338;27;20387;-77
2022/10/08 01:30:52;;;;;;;6.80;1.63;;;;;;;12.92;47.35;94508.50;5092729;27;20031;-77
2022/10/08 01:33:30;;;;;;;2.72;1.80;;;;;;;12.92;47.21;94513.84;5091022;27;20471;-76
2022/10/08 01:35:59;;;;;;;2.05;1.65;;;;;;;12.68;47.39;94476.88;5104822;27;20394;-77
2022/10/08 01:38:29;;;;;;;3.00;2.05;;;;;;;12.85;47.35;94499.06;5092439;28;20487;-76
2022/10/08 01:40:59;;;;;;;3.30;1.92;;;;;;;12.83;47.73;94501.25;5088483;27;20058;-77
2022/10/08 01:43:30;;;;;;;3.97;3.20;;;;;;;12.82;47.39;94497.00;5093361;27;20016;-76
2022/10/08 01:46:02;;;;;;;2.97;2.17;;;;;;;12.76;47.69;94490.22;5088302;27;20495;-76
2022/10/08 01:48:32;;;;;;;2.65;1.85;;;;;;;12.77;47.50;94493.69;5090626;27;20023;-76
2022/10/08 01:51:22;;;;;;;3.45;2.45;;;;;;;12.74;47.43;94495.09;5090336;27;20035;-77
2022/10/08 01:53:50;;;;;;;3.47;2.65;;;;;;;12.72;47.66;94491.94;5088192;27;20293;-78
2022/10/08 01:56:20;;;;;;;3.17;2.22;;;;;;;12.67;47.83;94494.75;5091026;27;20045;-76
2022/10/08 01:59:04;;;;;;;5.95;2.50;;;;;;;12.70;48.00;94501.38;5090734;27;20338;-77
2022/10/08 02:01:55;;;;;;;2.92;1.80;;;;;;;12.69;47.65;94499.78;5091595;27;20506;-76
2022/10/08 02:04:33;;;;;;;6.07;2.38;;;;;;;12.53;47.72;94480.72;5089253;27;20023;-76
2022/10/08 02:07:19;;;;;;;7.60;2.97;;;;;;;12.58;47.91;94483.28;5090247;27;20028;-77
2022/10/08 02:10:16;;;;;;;4.47;3.30;;;;;;;12.68;47.93;94501.69;5097566;27;20020;-76
2022/10/08 02:12:43;;;;;;;4.32;2.90;;;;;;;12.66;48.17;94501.22;5089787;27;20512;-76
2022/10/08 02:15:31;;;;;;;3.97;2.65;;;;;;;12.49;48.14;94485.09;5088635;27;20372;-77
2022/10/08 02:18:06;;;;;;;3.58;2.40;;;;;;;12.62;48.30;94510.13;5090658;27;20077;-76
2022/10/08 02:20:35;;;;;;;3.78;2.55;;;;;;;12.60;48.34;94507.00;5090748;27;20034;-76
2022/10/08 02:23:02;;;;;;;6.13;2.75;;;;;;;12.57;48.43;94503.00;5090189;27;20012;-76
2022/10/08 02:25:50;;;;;;;6.95;2.80;;;;;;;12.41;48.58;94489.31;5086919;27;20142;-77
2022/10/08 02:29:03;;;;;;;4.25;3.03;;;;;;;12.50;48.82;94507.22;5091247;27;20027;-77
2022/10/08 02:31:48;;;;;;;4.68;3.17;;;;;;;12.45;48.82;94500.16;5034778;28;20428;-77
2022/10/08 02:34:16;;;;;;;;;;;;;;;12.49;48.84;94498.44;5048269;28;20029;-76
2022/10/08 02:36:47;;;;;;;5.40;3.08;;;;;;;12.28;49.21;94476.84;5065263;27;19912;-76
2022/10/08 02:39:15;;;;;;;3.50;3.03;;;;;;;12.33;48.94;94483.91;5090598;27;20042;-76
2022/10/08 02:42:03;;;;;;;6.03;3.13;;;;;;;12.46;49.24;94497.19;5089356;27;20142;-76
2022/10/08 02:44:35;;;;;;;4.20;2.78;;;;;;;12.46;48.91;94501.72;5088615;27;20024;-77
2022/10/08 02:47:05;;;;;;;4.38;2.85;;;;;;;12.44;49.21;94493.25;5090071;28;20508;-76
2022/10/08 02:49:36;;;;;;;5.32;2.45;;;;;;;12.21;48.96;94463.19;5086891;27;20534;-76
2022/10/08 02:52:03;;;;;;;5.22;3.10;;;;;;;12.21;48.93;94465.06;5087534;27;20051;-76
2022/10/08 02:54:34;;;;;;;4.75;2.97;;;;;;;12.24;48.90;94467.88;5089044;27;20708;-77
2022/10/08 02:57:14;;;;;;;4.80;3.67;;;;;;;12.40;49.09;94497.63;5086917;27;20662;-77
2022/10/08 02:59:41;;;;;;;3.42;2.88;;;;;;;12.20;49.27;94471.47;5089219;27;20631;-76
2022/10/08 03:02:08;;;;;;;4.10;2.42;;;;;;;12.32;49.28;94493.03;5087173;28;20493;-76
2022/10/08 03:04:50;;;;;;;5.38;3.67;;;;;;;12.10;49.32;94461.06;5091678;27;20430;-77
2022/10/08 03:07:16;;;;;;;4.60;3.33;;;;;;;12.30;48.96;94495.22;5088760;27;20066;-76
2022/10/08 03:09:44;;;;;;;4.00;3.58;;;;;;;12.28;49.30;94500.06;5088783;28;20015;-77
2022/10/08 03:12:10;;;;;;;4.45;3.22;;;;;;;12.26;49.33;94496.94;5087410;27;20016;-77
2022/10/08 03:14:39;;;;;;;4.70;3.53;;;;;;;12.25;49.42;94495.34;5086341;27;20375;-78
2022/10/08 03:17:07;;;;;;;4.93;3.10;;;;;;;12.21;49.30;94494.41;5095355;27;20061;-76
2022/10/08 03:19:33;;;;;;;5.63;3.28;;;;;;;11.98;49.46;94459.75;5089416;28;20078;-77
2022/10/08 03:22:00;;;;;;;8.35;3.42;;;;;;;12.08;49.58;94468.59;5089515;27;20027;-75
2022/10/08 03:24:25;;;;;;;9.88;3.88;;;;;;;12.04;49.56;94466.53;5094508;27;20234;-76
2022/10/08 03:26:51;;;;;;;7.65;3.40;;;;;;;12.17;49.66;94488.91;5088719;27;20023;-77
2022/10/08 03:29:17;;;;;;;5.85;3.90;;;;;;;11.98;49.50;94462.41;5089024;27;20116;-76
2022/10/08 03:31:42;;;;;;;4.55;2.90;;;;;;;12.19;49.53;94493.91;5087418;27;20103;-76
2022/10/08 03:34:08;;;;;;;3.72;2.95;;;;;;;12.17;49.55;94485.44;5086073;28;20028;-76
2022/10/08 03:36:33;;;;;;;4.72;3.00;;;;;;;12.12;49.42;94496.22;5092368;28;20028;-77
2022/10/08 03:38:59;;;;;;;4.93;3.17;;;;;;;12.02;49.67;94476.75;5088909;28;20424;-76
2022/10/08 03:41:24;;;;;;;3.83;2.72;;;;;;;12.00;49.63;94468.25;5090489;28;20038;-76
2022/10/08 03:43:50;;;;;;;7.15;3.60;;;;;;;12.02;49.73;94471.41;5088932;28;20440;-76
2022/10/08 03:46:15;;;;;;;7.72;3.72;;;;;;;12.12;49.58;94481.03;5089069;27;20429;-76
2022/10/08 03:48:42;;;;;;;5.03;2.95;;;;;;;12.11;49.92;94487.44;5089387;28;20069;-76
2022/10/08 03:51:10;;;;;;;5.63;4.07;;;;;;;12.11;49.81;94484.00;5087846;28;20578;-77
2022/10/08 03:53:38;;;;;;;4.47;2.90;;;;;;;11.98;50.00;94475.75;5088386;28;20182;-76
2022/10/08 03:56:06;;;;;;;6.53;4.03;;;;;;;12.03;50.01;94482.84;5087486;28;20034;-77
2022/10/08 03:58:31;;;;;;;5.57;3.05;;;;;;;11.99;49.77;94471.22;5086432;28;20113;-77
2022/10/08 04:01:01;;;;;;;6.00;4.05;;;;;;;12.00;49.71;94478.13;5089164;28;20146;-76
2022/10/08 04:03:30;;;;;;;6.35;3.80;;;;;;;11.97;50.10;94487.53;5086282;28;20363;-77
2022/10/08 04:05:56;;;;;;;7.30;4.28;;;;;;;11.93;50.00;94483.88;5096124;28;20075;-77
2022/10/08 04:08:22;;;;;;;5.82;3.47;;;;;;;11.79;50.08;94455.72;5089003;28;20432;-76
2022/10/08 04:10:47;;;;;;;3.97;2.88;;;;;;;11.97;50.19;94482.19;5088062;28;20035;-77
2022/10/08 04:13:14;;;;;;;3.83;3.25;;;;;;;11.74;50.19;94442.53;5086338;28;20036;-76
2022/10/08 04:15:40;;;;;;;4.47;2.97;;;;;;;11.52;50.29;94416.69;5091460;28;20020;-77
2022/10/08 04:18:06;;;;;;;5.43;3.38;;;;;;;11.84;50.10;94463.59;5086345;28;20157;-76
2022/10/08 04:20:32;;;;;;;6.90;3.97;;;;;;;11.54;50.36;94427.84;5093027;27;20811;-76
2022/10/08 04:22:57;;;;;;;3.85;2.97;;;;;;;11.88;50.34;94486.66;5094008;27;20103;-76
2022/10/08 04:25:23;;;;;;;5.28;3.40;;;;;;;11.86;50.36;94483.53;5091845;27;20341;-77
2022/10/08 04:27:48;;;;;;;4.85;3.13;;;;;;;11.73;50.47;94471.06;5093858;27;20242;-77
2022/10/08 04:30:15;;;;;;;5.60;3.65;;;;;;;11.80;50.41;94478.63;5089402;27;20023;-76
2022/10/08 04:32:41;;;;;;;4.25;3.10;;;;;;;11.73;50.20;94479.06;5091766;27;20030;-76
2022/10/08 04:35:07;;;;;;;5.80;4.15;;;;;;;11.72;50.87;94482.81;5090462;27;20028;-76
2022/10/08 04:37:33;;;;;;;5.13;4.15;;;;;;;11.68;50.67;94470.41;5091531;28;20047;-77
2022/10/08 04:39:59;;;;;;;8.88;4.50;;;;;;;11.60;50.51;94459.38;5092051;27;20565;-76
2022/10/08 04:42:24;;;;;;;8.68;4.30;;;;;;;11.68;50.59;94465.06;5093234;27;20340;-76
2022/10/08 04:44:50;;;;;;;6.18;4.35;;;;;;;11.66;50.78;94478.69;5089023;27;20056;-77
2022/10/08 04:47:15;;;;;;;8.07;5.05;;;;;;;11.48;50.68;94447.69;5092337;27;20436;-76
2022/10/08 04:49:41;;;;;;;11.45;6.10;;;;;;;11.09;50.97;94390.53;5090549;27;20027;-76
2022/10/08 04:52:06;;;;;;;11.90;6.85;;;;;;;11.69;50.79;94483.41;5089613;27;20043;-76
2022/10/08 04:54:31;;;;;;;12.25;6.50;;;;;;;11.66;51.14;94486.69;5092327;27;20138;-77
2022/10/08 04:56:57;;;;;;;10.75;6.97;;;;;;;11.51;51.17;94465.72;5094313;27;20025;-77
2022/10/08 04:59:22;;;;;;;9.02;6.38;;;;;;;11.39;51.16;94447.63;5091255;27;20020;-77
2022/10/08 05:01:48;;;;;;;8.02;6.07;;;;;;;11.73;51.24;94489.72;5090085;27;20111;-76
2022/10/08 05:04:13;;;;;;;7.35;5.57;;;;;;;11.57;51.23;94464.53;5092103;27;20061;-76
2022/10/08 05:06:38;;;;;;;8.60;5.43;;;;;;;11.54;51.26;94457.91;5088987;28;20016;-76
2022/10/08 05:09:04;;;;;;;9.85;5.65;;;;;;;11.63;51.19;94473.97;5090596;27;20023;-77
2022/10/08 05:11:31;;;;;;;10.40;5.45;;;;;;;11.51;51.40;94449.75;5090615;27;20522;-76
2022/10/08 05:13:57;;;;;;;7.03;4.47;;;;;;;11.72;51.27;94480.16;5090472;27;20410;-77
2022/10/08 05:16:23;;;;;;;9.95;5.18;;;;;;;11.68;51.60;94476.53;5091870;27;20517;-77
2022/10/08 05:18:50;;;;;;;6.18;4.80;;;;;;;11.69;51.40;94477.28;5084136;27;20028;-77
2022/10/08 05:21:27;;;;;;;7.07;5.80;;;;;;;11.63;51.45;94471.31;5092273;27;20034;-77
2022/10/08 05:24:02;;;;;;;10.02;5.35;;;;;;;11.54;51.32;94465.91;5091190;27;20065;-77
2022/10/08 05:26:30;;;;;;;8.80;5.25;;;;;;;11.25;51.47;94425.56;5092110;27;20019;-77
2022/10/08 05:28:57;;;;;;;6.97;4.70;;;;;;;11.71;51.68;94494.56;5088854;27;20028;-76
2022/10/08 05:31:25;;;;;;;9.05;6.18;;;;;;;11.65;52.06;94485.09;5091198;27;20024;-76
2022/10/08 05:33:52;;;;;;;7.68;6.00;;;;;;;11.57;51.89;94464.53;5090038;27;20019;-77
2022/10/08 05:36:26;;;;;;;12.95;5.88;;;;;;;11.81;52.15;94491.66;5092359;27;20079;-77
2022/10/08 05:38:52;;;;;;;9.07;5.38;;;;;;;11.87;52.05;94493.13;5106279;27;20530;-76
2022/10/08 05:41:23;;;;;;;12.77;5.35;;;;;;;11.70;52.46;94458.34;5086933;27;20023;-77
2022/10/08 05:43:49;;;;;;;7.70;4.63;;;;;;;12.00;52.31;94488.78;5090440;27;20020;-76
2022/10/08 05:46:16;;;;;;;7.22;5.10;;;;;;;11.95;52.46;94476.38;5090509;27;20028;-76
2022/10/08 05:48:42;;;;;;;8.85;5.22;;;;;;;12.04;52.08;94485.19;5089500;27;20023;-77
2022/10/08 05:51:13;;;;;;;8.70;5.60;;;;;;;11.78;52.20;94446.19;5090228;28;20024;-76
2022/10/08 05:53:43;;;;;;;7.82;6.50;;;;;;;12.10;52.29;94483.19;5087268;27;20622;-76
2022/10/08 05:56:10;;;;;;;10.80;6.50;;;;;;;12.23;52.61;94489.53;5081688;27;20040;-76
2022/10/08 05:58:38;;;;;;;11.80;6.65;;;;;;;12.31;52.13;94494.91;5087687;27;20035;-77
2022/10/08 06:01:29;;;;;;;15.20;6.82;;;;;;;12.40;52.39;94497.63;5091386;27;20039;-76
2022/10/08 06:03:58;;;;;;;10.55;7.43;;;;;;;12.32;52.22;94463.69;5088057;27;20027;-76
2022/10/08 06:06:24;;;;;;;11.80;8.00;;;;;;;12.63;52.23;94493.81;5090380;27;20257;-77
2022/10/08 06:08:55;;;;;;;13.05;7.30;;;;;;;12.70;52.21;94488.03;5085412;27;20498;-76
2022/10/08 06:11:21;;;;;;;14.40;8.50;;;;;;;12.85;52.01;94490.28;5086950;27;20058;-77
2022/10/08 06:13:46;;;;;;;10.30;8.18;;;;;;;12.94;51.60;94484.94;5089195;27;20476;-76
2022/10/08 06:16:12;;;;;;;14.50;7.82;;;;;;;12.78;51.60;94455.22;5086307;28;21095;-77
2022/10/08 06:18:41;;;;;;;10.13;7.47;;;;;;;12.89;51.33;94485.88;5087412;27;20028;-76
2022/10/08 06:21:12;;;;;;;9.65;7.10;;;;;;;12.88;51.32;94479.75;5088242;27;20093;-77
2022/10/08 06:23:39;;;;;;;13.70;8.73;;;;;;;12.96;51.43;94488.88;5091302;27;20094;-76
2022/10/08 06:26:07;;;;;;;14.00;8.98;;;;;;;12.98;51.25;94492.03;5086510;27;20028;-76
2022/10/08 06:28:34;;;;;;;12.60;8.73;;;;;;;13.14;51.61;94495.03;5090454;27;20059;-77
2022/10/08 06:30:59;;;;;;;20.77;10.57;;;;;;;13.20;51.44;94493.81;5088600;27;20042;-77
2022/10/08 06:33:26;;;;;;;19.85;9.93;;;;;;;13.08;51.35;94473.03;5088766;27;20028;-75
2022/10/08 06:35:51;;;;;;;15.60;9.95;;;;;;;13.04;51.13;94457.97;5082388;28;20538;-77
2022/10/08 06:38:17;;;;;;;25.45;8.35;;;;;;;13.18;51.04;94495.97;5091213;27;20034;-76
2022/10/08 06:40:42;;;;;;;11.57;8.40;;;;;;;13.16;50.85;94466.13;5084194;27;20557;-77
2022/10/08 06:43:13;;;;;;;15.05;9.60;;;;;;;13.20;51.04;94477.78;5084595;27;20050;-76
2022/10/08 06:45:39;;;;;;;14.52;9.30;;;;;;;13.21;51.39;94463.28;5086746;27;20080;-77
2022/10/08 06:48:05;;;;;;;11.77;8.23;;;;;;;13.42;51.58;94490.19;5101125;27;20031;-76
2022/10/08 06:50:31;;;;;;;10.93;8.18;;;;;;;13.47;51.24;94474.78;5085655;27;20104;-77
2022/10/08 06:52:56;;;;;;;14.88;8.90;;;;;;;13.64;50.98;94490.06;5087173;27;20445;-76
2022/10/08 06:55:21;;;;;;;12.63;8.77;;;;;;;13.66;50.77;94475.28;5086404;27;20484;-77
2022/10/08 06:57:47;;;;;;;13.90;9.70;;;;;;;13.75;50.11;94484.06;5084730;27;20077;-76
2022/10/08 07:00:12;;;;;;;13.07;9.10;;;;;;;13.71;50.46;94469.78;5084085;27;20413;-76
2022/10/08 07:02:38;;;;;;;12.20;7.95;;;;;;;13.79;50.51;94462.06;5087391;27;20503;-76
2022/10/08 07:05:04;;;;;;;14.10;10.02;;;;;;;13.83;50.48;94473.69;5088888;27;20036;-76
2022/10/08 07:07:29;;;;;;;20.88;11.60;;;;;;;13.93;50.18;94490.19;5088493;28;20548;-76
2022/10/08 07:09:55;;;;;;;16.30;9.77;;;;;;;14.07;50.60;94496.16;5088118;27;20023;-76
2022/10/08 07:12:20;;;;;;;282.02;118.03;;;;;;;14.14;50.07;94492.97;5086440;27;20030;-77
2022/10/08 07:14:45;;;;;;;63.08;34.55;;;;;;;14.11;50.13;94485.59;5089518;27;20448;-77
2022/10/08 07:17:11;;;;;;;31.75;17.90;;;;;;;14.08;50.00;94459.50;5082558;27;20066;-76
2022/10/08 07:19:36;;;;;;;100.13;70.03;;;;;;;14.35;50.02;94490.41;5082225;27;20157;-77
2022/10/08 07:22:01;;;;;;;30.27;25.10;;;;;;;14.06;49.42;94445.63;5087301;27;20015;-76
2022/10/08 07:24:27;;;;;;;26.38;20.73;;;;;;;14.39;49.23;94483.28;5086786;27;20050;-77
2022/10/08 07:26:52;;;;;;;15.30;10.95;;;;;;;14.39;49.20;94485.97;5085441;27;20024;-76
2022/10/08 07:29:18;;;;;;;27.60;22.05;;;;;;;14.46;49.41;94484.38;5088614;27;20101;-76
2022/10/08 07:31:43;;;;;;;56.45;46.05;;;;;;;14.35;48.94;94463.63;5086475;27;20083;-77
2022/10/08 07:34:11;;;;;;;23.50;11.35;;;;;;;14.44;49.08;94478.56;5088222;27;20028;-76
2022/10/08 07:36:37;;;;;;;14.60;9.98;;;;;;;14.54;49.04;94482.78;5088335;28;20554;-78
2022/10/08 07:39:06;;;;;;;27.42;15.90;;;;;;;14.58;48.79;94483.72;5104057;27;20417;-77
2022/10/08 07:41:32;;;;;;;29.65;18.92;;;;;;;14.64;49.10;94482.44;5087820;27;20784;-77
2022/10/08 07:43:59;;;;;;;21.20;11.27;;;;;;;14.58;48.73;94463.09;5087162;28;20026;-77
2022/10/08 07:46:25;;;;;;;25.13;14.63;;;;;;;14.67;48.81;94487.16;5085351;28;20030;-76
2022/10/08 07:48:53;;;;;;;24.45;12.73;;;;;;;14.43;48.55;94468.94;5087517;28;20674;-76
2022/10/08 07:51:19;;;;;;;20.65;16.02;;;;;;;14.53;48.88;94465.13;5087975;28;20241;-76
2022/10/08 07:53:45;;;;;;;15.48;13.15;;;;;;;14.38;48.83;94468.34;5081955;28;20761;-76
2022/10/08 07:56:13;;;;;;;16.48;10.48;;;;;;;14.45;49.34;94464.06;5081069;28;20039;-77
2022/10/08 07:58:39;;;;;;;15.18;10.20;;;;;;;14.46;49.41;94449.59;5085384;28;20028;-77
2022/10/08 08:01:07;;;;;;;14.65;9.40;;;;;;;14.52;49.36;94448.28;5085475;28;20066;-76
2022/10/08 08:03:33;;;;;;;17.50;10.95;;;;;;;14.81;48.96;94474.34;5086735;28;20023;-77
2022/10/08 08:06:03;;;;;;;13.10;9.00;;;;;;;14.89;49.54;94472.72;5084731;28;20055;-76
2022/10/08 08:08:30;;;;;;;13.23;10.00;;;;;;;14.96;49.18;94473.75;5087058;28;20051;-77
2022/10/08 08:10:59;;;;;;;20.00;13.02;;;;;;;14.90;49.08;94468.94;5085358;28;20479;-76
2022/10/08 08:13:27;;;;;;;13.32;8.73;;;;;;;14.83;49.27;94434.63;5090261;28;20023;-77
2022/10/08 08:16:28;;;;;;;13.45;7.88;;;;;;;15.11;48.66;94467.06;5085012;28;20721;-77
2022/10/08 08:18:58;;;;;;;11.43;7.55;;;;;;;15.17;48.89;94464.97;5068111;28;20036;-78
2022/10/08 08:21:37;;;;;;;17.13;8.75;;;;;;;15.19;48.81;94460.09;5079248;28;20561;-77
2022/10/08 08:24:06;;;;;;;11.75;8.43;;;;;;;14.99;48.84;94437.53;5084369;28;20135;-77
2022/10/08 08:26:34;;;;;;;9.63;6.90;;;;;;;15.19;48.38;94449.38;5096303;28;20487;-77
2022/10/08 08:29:02;;;;;;;11.98;8.57;;;;;;;15.28;48.61;94453.53;5094352;28;20042;-76
2022/10/08 08:31:33;;;;;;;10.70;7.60;;;;;;;15.38;48.57;94449.69;5086608;28;20016;-76
2022/10/08 08:34:08;;;;;;;9.60;7.53;;;;;;;15.30;48.05;94427.19;5090798;28;20640;-76
2022/10/08 08:36:38;;;;;;;13.18;6.97;;;;;;;15.39;47.99;94425.25;5080599;28;20043;-76
2022/10/08 08:39:05;;;;;;;12.80;7.10;;;;;;;15.43;47.41;94438.78;5085556;28;20139;-76
2022/10/08 08:41:55;;;;;;;8.57;6.20;;;;;;;15.65;48.96;94446.47;5088414;28;20440;-76
2022/10/08 08:44:43;;;;;;;10.38;7.30;;;;;;;15.69;48.20;94446.63;5088263;27;20028;-77
2022/10/08 08:47:31;;;;;;;8.48;7.40;;;;;;;15.79;47.58;94440.84;5095497;28;20139;-76
2022/10/08 08:50:01;;;;;;;9.60;6.03;;;;;;;15.64;46.54;94422.69;5085876;28;20031;-76
2022/10/08 08:52:32;;;;;;;6.53;5.32;;;;;;;15.81;45.82;94436.72;5085229;28;20079;-76
2022/10/08 08:54:59;;;;;;;8.50;4.53;;;;;;;15.71;45.76;94417.56;5089043;27;20042;-77
2022/10/08 08:57:54;;;;;;;4.97;4.28;;;;;;;15.95;44.85;94441.78;5086259;28;20487;-77
2022/10/08 09:00:22;;;;;;;6.50;4.03;;;;;;;15.83;45.39;94412.25;5093605;28;20027;-76
2022/10/08 09:03:10;;;;;;;4.22;3.40;;;;;;;15.96;45.20;94440.66;5081834;28;20077;-76
2022/10/08 09:05:44;;;;;;;5.00;4.00;;;;;;;16.05;44.39;94444.03;5081842;28;20093;-78
2022/10/08 09:08:21;;;;;;;4.77;3.83;;;;;;;16.15;44.17;94443.63;5085196;27;20081;-76
2022/10/08 09:10:47;;;;;;;9.75;5.18;;;;;;;16.16;44.18;94431.00;5088781;27;20468;-77
2022/10/08 09:13:43;;;;;;;9.82;4.50;;;;;;;16.24;42.96;94428.19;5090317;27;20032;-78
2022/10/08 09:16:11;;;;;;;24.83;11.75;;;;;;;16.34;42.88;94424.31;5087045;27;20039;-77
2022/10/08 09:18:37;;;;;;;11.93;6.60;;;;;;;16.39;43.16;94426.00;5096814;27;20161;-77
2022/10/08 09:21:04;;;;;;;10.38;4.72;;;;;;;16.39;43.34;94408.00;5089702;27;20031;-77
2022/10/08 09:23:29;;;;;;;7.47;4.07;;;;;;;16.52;43.08;94424.91;5090113;27;20016;-76
2022/10/08 09:26:07;;;;;;;11.55;6.40;;;;;;;16.57;42.48;94424.69;5091715;27;20077;-77
2022/10/08 09:28:43;;;;;;;5.82;3.67;;;;;;;16.59;42.61;94415.16;5088206;28;20028;-77
2022/10/08 09:31:24;;;;;;;7.20;4.40;;;;;;;16.63;42.19;94415.28;5093272;27;20028;-76
2022/10/08 09:34:14;;;;;;;8.15;5.10;;;;;;;16.43;41.99;94373.25;5089826;27;20419;-76
2022/10/08 09:36:45;;;;;;;6.40;4.15;;;;;;;16.63;41.43;94407.22;5087087;27;20101;-76
2022/10/08 09:39:30;;;;;;;6.78;3.88;;;;;;;16.42;41.47;94382.41;5086742;27;20558;-76
2022/10/08 09:42:08;;;;;;;129.90;48.92;;;;;;;16.65;42.27;94402.31;5088452;27;20115;-77
2022/10/08 09:44:55;;;;;;;49.22;20.45;;;;;;;16.43;43.01;94367.88;5086344;27;20034;-77
2022/10/08 09:47:23;;;;;;;79.20;31.73;;;;;;;16.67;42.50;94379.34;5087479;27;20050;-78
2022/10/08 09:50:04;;;;;;;31.60;13.32;;;;;;;16.85;42.69;94385.28;5086147;27;20550;-77
2022/10/08 09:52:30;;;;;;;6.63;4.63;;;;;;;16.74;42.28;94363.47;5087507;27;20079;-79
2022/10/08 09:55:09;;;;;;;5.07;3.90;;;;;;;16.97;41.90;94385.25;5087097;27;20445;-78
2022/10/08 09:57:45;;;;;;;33.80;17.75;;;;;;;16.95;41.66;94370.59;5094971;27;20144;-77
2022/10/08 10:00:30;;;;;;;22.90;13.02;;;;;;;17.11;41.03;94388.34;5098977;27;20024;-77
2022/10/08 10:02:58;;;;;;;7.75;5.72;;;;;;;17.11;40.74;94372.22;5087400;27;20087;-77
2022/10/08 10:05:26;;;;;;;8.63;3.72;;;;;;;17.19;40.33;94375.94;5082573;27;20558;-77
2022/10/08 10:07:52;;;;;;;5.38;3.92;;;;;;;17.08;40.09;94359.47;5087661;27;20027;-76
2022/10/08 10:10:28;;;;;;;6.38;3.78;;;;;;;16.92;40.26;94326.38;5085006;27;20486;-77
2022/10/08 10:13:01;;;;;;;7.00;4.22;;;;;;;16.88;41.81;94368.47;5087989;27;20100;-77
2022/10/08 10:15:39;;;;;;;4.88;4.22;;;;;;;16.83;41.95;94344.53;5088020;27;20520;-77
2022/10/08 10:18:15;;;;;;;14.13;4.28;;;;;;;16.92;41.20;94339.81;5086557;27;20027;-77
2022/10/08 10:20:46;;;;;;;29.20;15.80;;;;;;;17.08;41.89;94356.00;5090476;27;20024;-77
2022/10/08 10:23:16;;;;;;;38.67;24.48;;;;;;;17.05;41.40;94345.94;5089813;27;20435;-78
2022/10/08 10:25:50;;;;;;;14.48;9.50;;;;;;;17.20;41.45;94355.22;5090118;27;20016;-78
2022/10/08 10:28:24;;;;;;;7.10;4.40;;;;;;;17.25;41.13;94345.00;5088295;27;20020;-77
2022/10/08 10:31:17;;;;;;;19.83;5.03;;;;;;;17.34;41.09;94345.63;5088809;27;20035;-77
2022/10/08 10:34:01;;;;;;;5.30;3.50;;;;;;;17.42;40.46;94343.91;5086066;27;20232;-76
2022/10/08 10:36:46;;;;;;;23.75;10.18;;;;;;;17.39;39.96;94323.09;5091492;27;20062;-78
2022/10/08 10:39:38;;;;;;;6.40;3.97;;;;;;;17.50;39.18;94335.69;5087400;27;20016;-78
2022/10/08 10:42:19;;;;;;;9.07;3.88;;;;;;;17.56;39.09;94334.31;5096366;27;20039;-77
2022/10/08 10:45:15;;;;;;;3.67;3.28;;;;;;;17.65;39.11;94325.34;5086378;28;20147;-77
2022/10/08 10:47:41;;;;;;;9.68;5.78;;;;;;;17.65;39.02;94315.31;5088493;27;20058;-78
2022/10/08 10:50:14;;;;;;;4.60;3.40;;;;;;;17.72;37.76;94310.16;5088275;27;20614;-76
2022/10/08 10:52:45;;;;;;;10.23;4.45;;;;;;;17.77;38.29;94317.97;5087849;27;20046;-78
2022/10/08 10:55:22;;;;;;;4.82;3.40;;;;;;;17.79;38.43;94310.34;5089161;27;20543;-77
2022/10/08 10:58:12;;;;;;;4.10;2.83;;;;;;;17.78;38.20;94303.38;5088337;27;20098;-77
2022/10/08 11:00:57;;;;;;;3.92;3.10;;;;;;;17.75;37.91;94298.69;5088987;28;20051;-78
2022/10/08 11:03:46;;;;;;;4.10;3.23;;;;;;;17.81;37.99;94297.31;5088962;27;20023;-77
2022/10/08 11:06:39;;;;;;;7.80;2.78;;;;;;;17.86;38.53;94294.34;5086672;27;20781;-77
2022/10/08 11:09:16;;;;;;;5.55;3.33;;;;;;;17.89;38.25;94292.91;5090163;28;20024;-77
2022/10/08 11:11:51;;;;;;;10.32;3.58;;;;;;;17.89;37.83;94279.44;5086980;28;20027;-77
2022/10/08 11:14:43;;;;;;;4.57;3.08;;;;;;;17.92;37.99;94276.03;5096734;28;20217;-77
2022/10/08 11:17:11;;;;;;;7.57;3.33;;;;;;;17.99;38.20;94279.69;5084003;27;20044;-77
2022/10/08 11:19:46;;;;;;;4.05;3.25;;;;;;;17.85;40.82;94275.84;5088547;27;20055;-77
2022/10/08 11:22:11;;;;;;;;;;;;;;;17.83;37.73;94273.53;5090707;27;20077;-77
2022/10/08 11:24:46;;;;;;;4.80;3.87;;;;;;;17.56;38.26;94253.63;5096174;27;19916;-78
2022/10/08 11:27:21;;;;;;;7.40;4.13;;;;;;;17.61;38.63;94244.53;5088776;27;20024;-78
2022/10/08 11:29:55;;;;;;;5.60;3.35;;;;;;;17.88;38.23;94259.81;5090594;27;20026;-77
2022/10/08 11:32:21;;;;;;;4.82;2.95;;;;;;;17.91;37.57;94256.44;5086832;27;20032;-78
2022/10/08 11:35:11;;;;;;;4.20;3.00;;;;;;;18.01;37.91;94264.00;5086891;27;20019;-77
2022/10/08 11:37:55;;;;;;;6.03;3.05;;;;;;;17.85;37.22;94220.13;5086711;28;20330;-77
2022/10/08 11:40:31;;;;;;;4.47;3.00;;;;;;;18.15;37.53;94247.41;5088557;27;20023;-78
2022/10/08 11:43:28;;;;;;;4.38;2.85;;;;;;;18.31;36.53;94250.06;5087485;28;20030;-77
2022/10/08 11:46:19;;;;;;;8.27;3.53;;;;;;;18.19;37.30;94250.16;5088004;28;20600;-77
2022/10/08 11:48:45;;;;;;;4.70;3.38;;;;;;;18.26;37.21;94234.97;5088592;28;20990;-77